createdAt,value
2019-04-19T00:01:49.180Z,40.55
2019-04-19T00:04:16.194Z,40.51
2019-04-19T00:06:45.055Z,40.08
2019-04-19T00:09:28.394Z,40.26
2019-04-19T00:11:55.952Z,40.45
2019-04-19T00:14:16.999Z,40.53
2019-04-19T00:16:46.984Z,40.30
2019-04-19T00:19:35.149Z,40.22
2019-04-19T00:22:09.173Z,40.30
2019-04-19T00:24:16.729Z,40.35
2019-04-19T00:26:46.709Z,40.41
2019-04-19T00:29:21.970Z,40.29
2019-04-19T00:32:06.476Z,40.41
2019-04-19T00:34:16.618Z,40.24
2019-04-19T00:36:46.645Z,40.32
2019-04-19T00:39:38.466Z,40.51
2019-04-19T00:42:24.946Z,40.65
2019-04-19T00:45:01.539Z,41.07
2019-04-19T00:47:28.701Z,41.69
2019-04-19T00:49:52.662Z,41.93
2019-04-19T00:52:33.594Z,42.26
2019-04-19T00:54:52.080Z,42.01
2019-04-19T00:57:22.490Z,42.13
2019-04-19T00:59:45.456Z,42.12
2019-04-19T01:02:15.486Z,41.21
2019-04-19T01:04:41.566Z,41.04
2019-04-19T01:07:18.880Z,41.08
2019-04-19T01:09:56.299Z,41.33
2019-04-19T01:12:23.589Z,41.00
2019-04-19T01:15:00.971Z,40.70
2019-04-19T01:17:31.266Z,39.71
2019-04-19T01:19:52.991Z,40.63
2019-04-19T01:22:22.063Z,39.36
2019-04-19T01:24:49.571Z,39.21
2019-04-19T01:27:21.176Z,38.88
2019-04-19T01:29:51.600Z,38.77
2019-04-19T01:32:19.786Z,38.90
2019-04-19T01:34:54.378Z,38.38
2019-04-19T01:37:23.283Z,38.18
2019-04-19T01:40:05.818Z,37.99
2019-04-19T01:42:38.893Z,37.96
2019-04-19T01:45:06.024Z,37.58
2019-04-19T01:47:51.465Z,37.64
2019-04-19T01:50:18.381Z,37.57
2019-04-19T01:52:57.139Z,37.63
2019-04-19T01:55:16.812Z,37.58
2019-04-19T01:57:38.806Z,37.48
2019-04-19T02:00:12.657Z,37.71
2019-04-19T02:02:46.883Z,37.52
2019-04-19T02:05:15.048Z,37.55
2019-04-19T02:07:42.428Z,37.64
2019-04-19T02:10:57.767Z,37.76
2019-04-19T02:13:26.946Z,37.67
2019-04-19T02:15:51.330Z,37.80
2019-04-19T02:18:23.292Z,38.00
2019-04-19T02:20:49.986Z,38.01
2019-04-19T02:23:20.124Z,38.06
2019-04-19T02:25:51.650Z,38.33
2019-04-19T02:28:24.502Z,38.48
2019-04-19T02:31:08.976Z,38.76
2019-04-19T02:33:47.949Z,38.69
2019-04-19T02:36:15.556Z,38.74
2019-04-19T02:38:53.766Z,39.01
2019-04-19T02:48:54.182Z,39.41
2019-04-19T02:53:47.080Z,39.90
2019-04-19T02:59:21.140Z,40.30
2019-04-19T03:02:04.505Z,40.51
2019-04-19T03:06:36.745Z,40.75
2019-04-19T03:08:59.292Z,40.95
2019-04-19T03:11:41.281Z,41.17
2019-04-19T03:14:12.825Z,41.17
2019-04-19T03:16:48.007Z,41.37
2019-04-19T03:19:09.567Z,41.67
2019-04-19T03:21:43.295Z,41.86
2019-04-19T03:24:14.436Z,41.96
2019-04-19T03:26:41.540Z,41.95
2019-04-19T03:29:08.803Z,42.02
2019-04-19T03:31:59.072Z,42.04
2019-04-19T03:34:36.772Z,42.19
2019-04-19T03:36:47.603Z,42.31
2019-04-19T03:39:23.054Z,42.42
2019-04-19T03:44:32.196Z,42.73
2019-04-19T03:47:04.368Z,42.81
2019-04-19T03:52:08.588Z,43.08
2019-04-19T03:54:29.870Z,42.94
2019-04-19T03:57:00.657Z,43.01
2019-04-19T03:59:16.211Z,43.09
2019-04-19T04:01:49.895Z,43.00
2019-04-19T04:04:20.797Z,42.89
2019-04-19T04:06:46.214Z,43.12
2019-04-19T04:09:25.043Z,43.20
2019-04-19T04:12:03.283Z,43.31
2019-04-19T04:14:51.905Z,43.25
2019-04-19T04:17:05.830Z,43.25
2019-04-19T04:19:35.618Z,43.22
2019-04-19T04:22:07.700Z,43.35
2019-04-19T04:24:39.797Z,43.29
2019-04-19T04:27:14.134Z,43.34
2019-04-19T04:29:41.775Z,43.37
2019-04-19T04:32:15.544Z,43.52
2019-04-19T04:34:47.824Z,43.36
2019-04-19T04:37:24.857Z,43.49
2019-04-19T04:39:36.903Z,43.37
2019-04-19T04:42:15.683Z,43.24
2019-04-19T04:45:01.847Z,43.41
2019-04-19T04:47:28.671Z,43.42
2019-04-19T04:50:17.014Z,43.51
2019-04-19T04:52:31.875Z,43.52
2019-04-19T04:54:58.957Z,43.55
2019-04-19T04:57:41.682Z,43.66
2019-04-19T05:00:03.326Z,43.66
2019-04-19T05:02:48.651Z,43.61
2019-04-19T05:05:19.790Z,43.32
2019-04-19T05:07:58.357Z,43.44
2019-04-19T05:10:21.649Z,43.76
2019-04-19T05:13:12.224Z,43.68
2019-04-19T05:15:26.270Z,43.69
2019-04-19T05:18:18.705Z,43.64
2019-04-19T05:20:22.675Z,43.77
2019-04-19T05:22:55.283Z,43.68
2019-04-19T05:25:30.812Z,43.75
2019-04-19T05:27:55.536Z,43.54
2019-04-19T05:30:09.109Z,43.44
2019-04-19T05:32:43.513Z,43.28
2019-04-19T05:35:24.182Z,43.56
2019-04-19T05:38:03.417Z,43.27
2019-04-19T05:40:47.486Z,43.12
2019-04-19T05:43:50.015Z,42.87
2019-04-19T05:46:05.141Z,43.09
2019-04-19T05:48:27.347Z,43.08
2019-04-19T05:51:12.956Z,43.14
2019-04-19T05:53:24.544Z,42.77
2019-04-19T05:55:41.120Z,42.61
2019-04-19T05:58:20.351Z,42.08
2019-04-19T06:00:55.309Z,41.58
2019-04-19T06:03:21.651Z,41.26
2019-04-19T06:06:10.857Z,40.67
2019-04-19T06:08:20.904Z,40.17
2019-04-19T06:10:52.272Z,39.57
2019-04-19T06:13:17.086Z,39.17
2019-04-19T06:16:05.623Z,38.73
2019-04-19T06:18:38.105Z,38.27
2019-04-19T06:21:17.267Z,37.82
2019-04-19T06:23:48.379Z,37.42
2019-04-19T06:26:46.482Z,37.08
2019-04-19T06:28:51.916Z,36.46
2019-04-19T06:31:19.527Z,35.99
2019-04-19T06:33:42.945Z,35.70
2019-04-19T06:35:59.512Z,35.15
2019-04-19T06:38:24.979Z,34.64
2019-04-19T06:41:01.518Z,34.09
2019-04-19T06:43:35.977Z,33.25
2019-04-19T06:46:09.348Z,32.62
2019-04-19T06:48:29.577Z,32.45
2019-04-19T06:50:59.094Z,32.40
2019-04-19T06:53:31.052Z,32.13
2019-04-19T06:56:07.987Z,31.59
2019-04-19T06:58:32.769Z,31.55
2019-04-19T07:01:10.730Z,31.00
2019-04-19T07:03:25.788Z,30.29
2019-04-19T07:06:09.065Z,30.47
2019-04-19T07:11:16.395Z,29.75
2019-04-19T07:13:38.515Z,29.77
2019-04-19T07:16:19.312Z,29.53
2019-04-19T07:18:39.292Z,29.27
2019-04-19T07:21:16.305Z,29.24
2019-04-19T07:23:49.789Z,29.41
2019-04-19T07:26:25.007Z,29.19
2019-04-19T07:28:33.263Z,29.09
2019-04-19T07:31:03.193Z,28.92
2019-04-19T07:33:39.981Z,28.84
2019-04-19T07:36:17.094Z,28.99
2019-04-19T07:38:53.790Z,28.27
2019-04-19T07:41:17.798Z,28.05
2019-04-19T07:44:01.284Z,27.74
2019-04-19T07:46:41.099Z,28.21
2019-04-19T07:48:55.349Z,28.27
2019-04-19T07:51:30.005Z,28.92
2019-04-19T07:53:55.272Z,29.07
2019-04-19T07:56:40.424Z,29.11
2019-04-19T07:59:24.736Z,28.97
2019-04-19T08:02:07.346Z,28.48
2019-04-19T08:04:37.829Z,28.48
2019-04-19T08:06:53.962Z,27.29
2019-04-19T08:14:22.677Z,26.82
2019-04-19T08:17:31.168Z,26.00
2019-04-19T08:29:13.295Z,24.60
2019-04-19T08:31:29.578Z,24.30
2019-04-19T08:34:02.670Z,24.18
2019-04-19T08:36:33.054Z,23.34
2019-04-19T08:39:19.045Z,22.21
2019-04-19T08:41:46.692Z,22.46
2019-04-19T08:44:18.020Z,21.89
2019-04-19T08:46:32.599Z,21.33
2019-04-19T08:49:05.659Z,20.74
2019-04-19T08:51:45.228Z,20.17
2019-04-19T08:54:36.959Z,19.93
2019-04-19T08:56:53.700Z,18.35
2019-04-19T08:59:38.693Z,18.47
2019-04-19T09:02:05.609Z,18.38
2019-04-19T09:04:34.773Z,18.62
2019-04-19T09:09:35.521Z,17.77
2019-04-19T09:12:06.565Z,17.67
2019-04-19T09:14:38.079Z,16.96
2019-04-19T09:17:14.225Z,16.84
2019-04-19T09:19:58.024Z,16.59
2019-04-19T09:22:04.404Z,16.69
2019-04-19T09:24:30.956Z,16.51
2019-04-19T09:27:01.325Z,16.27
2019-04-19T09:29:40.408Z,17.13
2019-04-19T09:31:56.031Z,17.10
2019-04-19T09:34:21.538Z,16.51
2019-04-19T09:37:01.431Z,16.80
2019-04-19T09:39:34.795Z,15.73
2019-04-19T09:41:57.434Z,16.53
2019-04-19T09:44:29.093Z,15.94
2019-04-19T09:46:50.814Z,16.03
2019-04-19T09:49:40.771Z,15.94
2019-04-19T09:52:03.278Z,15.60
2019-04-19T09:54:45.903Z,15.79
2019-04-19T09:57:07.052Z,16.19
2019-04-19T09:59:27.857Z,16.02
2019-04-19T10:01:57.378Z,16.51
2019-04-19T10:04:21.044Z,16.02
2019-04-19T10:06:49.526Z,15.81
2019-04-19T10:09:21.872Z,15.81
2019-04-19T10:11:48.657Z,16.33
2019-04-19T10:14:17.378Z,17.61
2019-04-19T10:16:48.452Z,17.54
2019-04-19T10:19:17.070Z,17.19
2019-04-19T10:21:49.931Z,16.27
2019-04-19T10:24:20.950Z,15.93
2019-04-19T10:26:53.012Z,15.56
2019-04-19T10:29:27.127Z,15.03
2019-04-19T10:31:57.162Z,15.42
2019-04-19T10:34:26.504Z,15.92
2019-04-19T10:36:57.025Z,16.42
2019-04-19T10:39:27.662Z,14.96
2019-04-19T10:41:56.537Z,15.48
2019-04-19T10:44:26.997Z,14.78
2019-04-19T10:46:56.627Z,15.16
2019-04-19T10:49:33.494Z,14.64
2019-04-19T10:51:56.865Z,15.47
2019-04-19T10:54:26.605Z,15.58
2019-04-19T10:57:12.912Z,15.20
2019-04-19T10:59:42.546Z,15.59
2019-04-19T11:02:11.218Z,15.74
2019-04-19T11:04:40.614Z,15.46
2019-04-19T11:07:09.589Z,14.69
2019-04-19T11:09:38.109Z,14.06
2019-04-19T11:12:07.993Z,14.52
2019-04-19T11:14:36.539Z,14.76
2019-04-19T11:17:07.445Z,14.83
2019-04-19T11:19:52.154Z,15.03
2019-04-19T11:22:07.705Z,14.75
2019-04-19T11:24:36.465Z,14.24
2019-04-19T11:27:05.292Z,13.57
2019-04-19T11:29:34.523Z,13.81
2019-04-19T11:32:10.456Z,13.22
2019-04-19T11:34:40.923Z,12.99
2019-04-19T11:37:13.194Z,12.31
2019-04-19T11:39:41.336Z,12.65
2019-04-19T11:42:10.218Z,12.30
2019-04-19T11:44:39.513Z,11.38
2019-04-19T11:47:08.974Z,11.06
2019-04-19T11:49:40.899Z,10.12
2019-04-19T11:52:11.222Z,10.15
2019-04-19T11:54:39.629Z,9.72
2019-04-19T11:57:10.859Z,9.50
2019-04-19T11:59:48.869Z,9.09
2019-04-19T12:02:20.795Z,9.10
2019-04-19T12:04:48.428Z,8.89
2019-04-19T12:07:16.923Z,8.38
2019-04-19T12:09:45.367Z,7.92
2019-04-19T12:12:14.971Z,7.73
2019-04-19T12:14:46.038Z,7.79
2019-04-19T12:17:15.248Z,7.69
2019-04-19T12:19:50.480Z,7.74
2019-04-19T12:22:14.922Z,7.95
2019-04-19T12:24:44.684Z,7.49
2019-04-19T12:27:13.856Z,7.38
2019-04-19T12:29:47.777Z,7.06
2019-04-19T12:32:12.636Z,6.92
2019-04-19T12:34:44.598Z,6.90
2019-04-19T12:37:11.648Z,6.89
2019-04-19T12:39:41.108Z,6.79
2019-04-19T12:42:11.399Z,7.00
2019-04-19T12:44:40.606Z,7.27
2019-04-19T12:47:11.036Z,7.20
2019-04-19T12:49:51.068Z,7.53
2019-04-19T12:52:10.184Z,7.52
2019-04-19T12:54:39.316Z,6.76
2019-04-19T12:57:07.915Z,7.11
2019-04-19T12:59:36.401Z,7.07
2019-04-19T13:02:06.504Z,7.75
2019-04-19T13:04:36.609Z,8.57
2019-04-19T13:07:06.814Z,8.81
2019-04-19T13:09:35.183Z,10.92
2019-04-19T13:12:05.191Z,11.52
2019-04-19T13:14:33.645Z,10.91
2019-04-19T13:17:02.224Z,11.64
2019-04-19T13:19:31.266Z,12.54
2019-04-19T13:22:00.593Z,13.84
2019-04-19T13:24:29.181Z,14.32
2019-04-19T13:26:59.081Z,15.12
2019-04-19T13:29:27.897Z,16.42
2019-04-19T13:31:56.735Z,16.22
2019-04-19T13:34:25.369Z,16.05
2019-04-19T13:37:13.823Z,15.90
2019-04-19T13:39:46.636Z,16.17
2019-04-19T13:42:17.132Z,17.40
2019-04-19T13:44:45.544Z,17.89
2019-04-19T13:47:14.004Z,20.56
2019-04-19T13:49:42.611Z,18.33
2019-04-19T13:52:12.643Z,18.57
2019-04-19T13:54:41.312Z,18.97
2019-04-19T13:57:11.056Z,22.19
2019-04-19T13:59:48.159Z,19.67
2019-04-19T14:02:10.578Z,19.66
2019-04-19T14:04:39.730Z,20.45
2019-04-19T14:07:09.375Z,19.82
2019-04-19T14:09:39.242Z,19.56
2019-04-19T14:12:09.262Z,19.36
2019-04-19T14:14:39.021Z,18.39
2019-04-19T14:17:07.674Z,19.32
2019-04-19T14:19:36.738Z,18.20
2019-04-19T14:22:06.877Z,18.39
2019-04-19T14:24:35.604Z,17.43
2019-04-19T14:27:05.785Z,16.61
2019-04-19T14:29:35.188Z,15.34
2019-04-19T14:32:05.238Z,15.42
2019-04-19T14:34:35.214Z,15.78
2019-04-19T14:37:04.542Z,16.15
2019-04-19T14:39:34.305Z,16.55
2019-04-19T14:42:03.498Z,16.63
2019-04-19T14:44:33.614Z,17.16
2019-04-19T14:47:03.155Z,17.72
2019-04-19T14:49:32.737Z,18.30
2019-04-19T14:52:01.467Z,16.99
2019-04-19T14:54:30.053Z,16.28
2019-04-19T14:56:58.887Z,16.39
2019-04-19T14:59:27.349Z,15.78
2019-04-19T15:02:13.141Z,15.66
2019-04-19T15:04:46.886Z,15.28
2019-04-19T15:07:16.594Z,15.39
2019-04-19T15:09:45.891Z,14.96
2019-04-19T15:12:14.456Z,15.94
2019-04-19T15:14:43.010Z,15.62
2019-04-19T15:17:11.798Z,16.25
2019-04-19T15:19:40.297Z,16.67
2019-04-19T15:22:08.766Z,16.76
2019-04-19T15:24:37.216Z,18.21
2019-04-19T15:27:05.684Z,18.06
2019-04-19T15:29:34.698Z,18.82
2019-04-19T15:32:04.145Z,18.87
2019-04-19T15:34:33.710Z,19.53
2019-04-19T15:37:04.038Z,18.58
2019-04-19T15:39:33.742Z,19.08
2019-04-19T15:42:02.511Z,20.46
2019-04-19T15:44:30.893Z,20.74
2019-04-19T15:47:00.143Z,20.12
2019-04-19T15:49:28.589Z,20.76
2019-04-19T15:51:57.452Z,20.79
2019-04-19T15:54:26.406Z,20.39
2019-04-19T15:56:54.845Z,19.68
2019-04-19T15:59:26.630Z,19.99
2019-04-19T16:01:55.972Z,20.71
2019-04-19T16:04:43.934Z,20.89
2019-04-19T16:07:32.196Z,21.76
2019-04-19T16:10:12.960Z,22.57
2019-04-19T16:12:44.013Z,22.78
2019-04-19T16:15:13.970Z,22.96
2019-04-19T16:17:43.734Z,23.13
2019-04-19T16:20:13.404Z,23.58
2019-04-19T16:22:42.426Z,23.69
2019-04-19T16:25:11.308Z,23.59
2019-04-19T16:27:42.012Z,24.23
2019-04-19T16:30:10.321Z,23.90
2019-04-19T16:32:39.095Z,24.23
2019-04-19T16:35:07.944Z,24.51
2019-04-19T16:37:37.180Z,24.13
2019-04-19T16:40:09.875Z,24.89
2019-04-19T16:42:38.997Z,23.79
2019-04-19T16:45:08.223Z,23.72
2019-04-19T16:47:37.505Z,24.04
2019-04-19T16:50:07.122Z,23.68
2019-04-19T16:52:36.458Z,24.26
2019-04-19T16:55:07.389Z,24.48
2019-04-19T16:57:36.482Z,24.27
2019-04-19T17:00:13.003Z,24.47
2019-04-19T17:02:42.908Z,24.19
2019-04-19T17:05:12.672Z,24.38
2019-04-19T17:07:41.665Z,24.18
2019-04-19T17:10:10.206Z,23.91
2019-04-19T17:12:39.652Z,24.43
2019-04-19T17:15:10.752Z,24.49
2019-04-19T17:17:50.932Z,24.11
2019-04-19T17:20:33.999Z,24.63
2019-04-19T17:23:02.791Z,23.93
2019-04-19T17:25:31.266Z,24.26
2019-04-19T17:28:00.954Z,24.10
2019-04-19T17:30:36.378Z,22.67
2019-04-19T17:33:06.173Z,22.62
2019-04-19T17:35:34.814Z,22.62
2019-04-19T17:38:03.299Z,22.80
2019-04-19T17:40:32.389Z,22.62
2019-04-19T17:43:01.373Z,22.42
2019-04-19T17:45:29.881Z,22.56
2019-04-19T17:47:58.554Z,22.74
2019-04-19T17:50:27.118Z,22.35
2019-04-19T17:52:56.688Z,22.69
2019-04-19T17:55:31.011Z,22.80
2019-04-19T17:57:56.942Z,22.51
2019-04-19T18:00:26.108Z,22.67
2019-04-19T18:02:55.254Z,22.62
2019-04-19T18:05:24.279Z,22.58
2019-04-19T18:07:53.925Z,22.67
2019-04-19T18:10:27.195Z,22.76
2019-04-19T18:12:53.170Z,23.09
2019-04-19T18:15:22.119Z,22.94
2019-04-19T18:17:55.558Z,22.89
2019-04-19T18:20:22.960Z,23.27
2019-04-19T18:23:00.742Z,23.14
2019-04-19T18:25:22.180Z,23.08
2019-04-19T18:27:53.825Z,23.18
2019-04-19T18:30:22.153Z,23.15
2019-04-19T18:32:55.032Z,23.14
2019-04-19T18:35:29.024Z,23.40
2019-04-19T18:37:53.604Z,23.58
2019-04-19T18:40:22.181Z,23.51
2019-04-19T18:43:06.409Z,23.72
2019-04-19T18:45:25.096Z,23.86
2019-04-19T18:47:51.191Z,23.74
2019-04-19T18:50:20.331Z,23.86
2019-04-19T18:52:53.646Z,23.86
2019-04-19T18:55:27.518Z,24.52
2019-04-19T18:57:49.978Z,24.15
2019-04-19T19:00:18.965Z,24.08
2019-04-19T19:02:53.871Z,23.88
2019-04-19T19:05:18.251Z,23.84
2019-04-19T19:07:49.335Z,23.96
2019-04-19T19:10:24.595Z,23.96
2019-04-19T19:12:49.610Z,23.86
2019-04-19T19:15:18.677Z,24.40
2019-04-19T19:17:50.811Z,23.93
2019-04-19T19:20:22.455Z,24.35
2019-04-19T19:23:05.527Z,24.04
2019-04-19T19:25:34.332Z,24.09
2019-04-19T19:27:50.414Z,23.77
2019-04-19T19:30:20.757Z,23.88
2019-04-19T19:32:53.960Z,23.84
2019-04-19T19:35:23.154Z,23.87
2019-04-19T19:37:50.844Z,24.01
2019-04-19T19:40:29.441Z,23.84
2019-04-19T19:43:18.125Z,23.92
2019-04-19T19:45:36.644Z,23.97
2019-04-19T19:48:26.106Z,23.95
2019-04-19T19:50:58.624Z,24.00
2019-04-19T19:53:35.454Z,24.04
2019-04-19T19:55:54.834Z,24.22
2019-04-19T19:58:19.829Z,24.33
2019-04-19T20:00:56.785Z,24.32
2019-04-19T20:03:13.581Z,24.28
2019-04-19T20:05:40.233Z,24.16
2019-04-19T20:08:07.871Z,24.00
2019-04-19T20:10:40.651Z,24.20
2019-04-19T20:13:11.230Z,24.28
2019-04-19T20:15:40.662Z,24.34
2019-04-19T20:18:08.407Z,24.58
2019-04-19T20:20:40.834Z,24.63
2019-04-19T20:23:12.256Z,24.99
2019-04-19T20:25:46.383Z,24.88
2019-04-19T20:28:16.307Z,25.07
2019-04-19T20:30:43.011Z,25.33
2019-04-19T20:33:12.594Z,25.61
2019-04-19T20:35:40.979Z,25.79
2019-04-19T20:38:12.656Z,26.13
2019-04-19T20:40:49.321Z,26.02
2019-04-19T20:43:30.591Z,26.19
2019-04-19T20:45:46.161Z,26.39
2019-04-19T20:48:16.197Z,26.42
2019-04-19T20:50:52.372Z,26.48
2019-04-19T20:53:21.923Z,26.32
2019-04-19T20:56:20.492Z,26.53
2019-04-19T20:58:27.975Z,26.37
2019-04-19T21:00:50.443Z,26.45
2019-04-19T21:03:26.207Z,26.45
2019-04-19T21:05:50.907Z,26.63
2019-04-19T21:08:25.255Z,26.64
2019-04-19T21:10:59.564Z,26.71
2019-04-19T21:13:25.262Z,26.97
2019-04-19T21:15:54.383Z,27.07
2019-04-19T21:18:25.818Z,27.26
2019-04-19T21:20:55.791Z,27.33
2019-04-19T21:23:27.463Z,27.45
2019-04-19T21:25:57.822Z,27.75
2019-04-19T21:28:35.550Z,27.76
2019-04-19T21:30:59.919Z,27.59
2019-04-19T21:33:27.038Z,27.73
2019-04-19T21:36:00.845Z,27.85
2019-04-19T21:38:27.205Z,28.14
2019-04-19T21:40:56.039Z,28.13
2019-04-19T21:43:28.456Z,28.14
2019-04-19T21:45:55.118Z,28.20
2019-04-19T21:48:26.981Z,28.51
2019-04-19T21:50:55.349Z,28.63
2019-04-19T21:53:25.848Z,28.75
2019-04-19T21:56:02.129Z,29.00
2019-04-19T21:58:25.079Z,29.13
2019-04-19T22:01:02.498Z,29.17
2019-04-19T22:03:30.594Z,29.46
2019-04-19T22:06:03.991Z,29.61
2019-04-19T22:08:33.319Z,29.66
2019-04-19T22:11:00.490Z,29.75
2019-04-19T22:13:33.303Z,29.91
2019-04-19T22:16:01.931Z,30.16
2019-04-19T22:18:32.333Z,30.35
2019-04-19T22:21:03.721Z,30.45
2019-04-19T22:23:30.977Z,30.50
2019-04-19T22:26:13.045Z,30.62
2019-04-19T22:28:30.027Z,30.75
2019-04-19T22:31:00.253Z,30.78
2019-04-19T22:33:28.785Z,30.93
2019-04-19T22:36:00.702Z,31.04
2019-04-19T22:38:27.680Z,31.08
2019-04-19T22:40:59.028Z,31.24
2019-04-19T22:43:26.859Z,31.25
2019-04-19T22:46:01.809Z,31.41
2019-04-19T22:48:26.672Z,31.41
2019-04-19T22:50:58.273Z,31.53
2019-04-19T22:53:32.131Z,31.63
2019-04-19T22:56:08.114Z,31.76
2019-04-19T22:58:29.961Z,31.78
2019-04-19T23:00:59.021Z,32.08
2019-04-19T23:03:33.632Z,32.26
2019-04-19T23:05:59.569Z,32.48
2019-04-19T23:08:33.206Z,32.69
2019-04-19T23:11:02.336Z,32.83
2019-04-19T23:13:29.702Z,32.95
2019-04-19T23:16:04.010Z,33.02
2019-04-19T23:18:30.390Z,33.15
2019-04-19T23:21:05.527Z,33.31
2019-04-19T23:23:31.678Z,33.34
2019-04-19T23:26:13.641Z,33.39
2019-04-19T23:28:34.774Z,33.39
2019-04-19T23:31:08.235Z,33.57
2019-04-19T23:33:30.292Z,33.87
2019-04-19T23:35:59.598Z,33.92
2019-04-19T23:38:30.834Z,34.05
2019-04-19T23:40:59.290Z,34.20
2019-04-19T23:43:34.242Z,34.27
2019-04-19T23:45:58.129Z,34.37
2019-04-19T23:48:31.472Z,34.64
2019-04-19T23:50:57.088Z,34.67
2019-04-19T23:53:32.915Z,34.86
2019-04-19T23:55:56.369Z,34.99
2019-04-19T23:58:29.541Z,35.03
